Time;durP1;ratioP1;P1;durP2;ratioP2;P2;SDS_P1;SDS_P2;PMS_P1;PMS_P2;Temp;Humidity;BMP_temperature;BMP_pressure;BME280_temperature;BME280_humidity;BME280_pressure;Samples;Min_cycle;Max_cycle;Signal;HPM_P1;HPM_P2
2022/03/19 00:00:51;;;;;;;70.47;29.80;;;4.60;99.90;;;;;;5040126;28;20303;-66
2022/03/19 00:03:18;;;;;;;70.80;28.40;;;4.60;99.90;;;;;;5026684;28;20185;-66
2022/03/19 00:05:44;;;;;;;71.07;30.13;;;4.60;99.90;;;;;;5044294;28;20296;-65
2022/03/19 00:08:11;;;;;;;85.83;33.00;;;4.60;99.90;;;;;;5040387;28;20439;-65
2022/03/19 00:10:36;;;;;;;65.30;29.40;;;4.50;99.90;;;;;;5044067;28;20444;-66
2022/03/19 00:13:02;;;;;;;71.20;29.03;;;4.50;99.90;;;;;;5035762;28;20495;-63
2022/03/19 00:15:28;;;;;;;65.40;29.83;;;4.50;99.90;;;;;;5033476;28;20623;-64
2022/03/19 00:17:54;;;;;;;71.93;29.43;;;4.40;99.90;;;;;;5034678;28;20208;-64
2022/03/19 00:20:21;;;;;;;73.97;31.13;;;4.40;99.90;;;;;;5041062;28;20840;-65
2022/03/19 00:22:47;;;;;;;71.57;31.17;;;4.40;99.90;;;;;;5040906;28;20297;-66
2022/03/19 00:25:13;;;;;;;75.57;28.27;;;4.40;99.90;;;;;;5040568;28;20468;-66
2022/03/19 00:27:41;;;;;;;73.37;30.13;;;4.40;99.90;;;;;;5037388;28;20421;-66
2022/03/19 00:30:09;;;;;;;64.40;30.53;;;4.40;99.90;;;;;;5032979;28;20313;-65
2022/03/19 00:32:35;;;;;;;71.43;31.93;;;4.40;99.90;;;;;;5034170;28;20460;-66
2022/03/19 00:35:02;;;;;;;80.67;29.73;;;4.40;99.90;;;;;;5010588;28;20456;-66
2022/03/19 00:37:27;;;;;;;73.43;31.20;;;4.40;99.90;;;;;;5038931;28;20429;-65
2022/03/19 00:39:53;;;;;;;67.80;29.60;;;4.30;99.90;;;;;;5038240;28;20448;-66
2022/03/19 00:42:19;;;;;;;73.60;31.20;;;4.30;99.90;;;;;;5036976;28;20268;-66
2022/03/19 00:44:47;;;;;;;75.37;31.10;;;4.30;99.90;;;;;;5021680;28;20218;-66
2022/03/19 00:47:13;;;;;;;82.63;31.33;;;4.30;99.90;;;;;;5039612;28;20456;-65
2022/03/19 00:49:38;;;;;;;70.00;28.40;;;4.30;99.90;;;;;;5038286;28;20965;-66
2022/03/19 00:52:05;;;;;;;80.93;32.13;;;4.20;99.90;;;;;;5046093;28;20425;-67
2022/03/19 00:54:30;;;;;;;69.53;29.73;;;4.30;99.90;;;;;;5038102;28;20285;-65
2022/03/19 00:56:56;;;;;;;79.97;30.60;;;4.30;99.90;;;;;;5041090;28;20436;-65
2022/03/19 00:59:21;;;;;;;68.00;28.57;;;4.30;99.90;;;;;;5025632;28;20221;-64
2022/03/19 01:01:47;;;;;;;66.93;27.63;;;4.30;99.90;;;;;;5048443;28;20233;-63
2022/03/19 01:04:13;;;;;;;76.67;31.20;;;4.30;99.90;;;;;;5047454;28;20224;-64
2022/03/19 01:06:39;;;;;;;67.10;28.80;;;4.30;99.90;;;;;;5040349;28;20197;-65
2022/03/19 01:09:05;;;;;;;67.40;28.80;;;4.30;99.90;;;;;;5037474;28;20440;-64
2022/03/19 01:11:30;;;;;;;76.20;29.70;;;4.30;99.90;;;;;;5045766;28;20255;-65
2022/03/19 01:13:56;;;;;;;74.27;30.60;;;4.30;99.90;;;;;;5044139;28;20212;-65
2022/03/19 01:16:24;;;;;;;63.50;29.07;;;4.30;99.90;;;;;;5041584;28;20561;-66
2022/03/19 01:18:50;;;;;;;56.87;26.03;;;4.20;99.90;;;;;;5027415;28;20225;-63
2022/03/19 01:21:17;;;;;;;72.63;31.23;;;4.20;99.90;;;;;;5043604;28;20427;-66
2022/03/19 01:23:43;;;;;;;73.97;30.37;;;4.20;99.90;;;;;;5042585;28;20197;-63
2022/03/19 01:26:08;;;;;;;62.63;27.57;;;4.20;99.90;;;;;;5034221;28;20425;-64
2022/03/19 01:28:34;;;;;;;65.70;28.93;;;4.20;99.90;;;;;;5040801;28;20416;-65
2022/03/19 01:31:00;;;;;;;65.57;26.37;;;4.20;99.90;;;;;;5031798;28;20598;-66
2022/03/19 01:33:26;;;;;;;74.30;29.70;;;4.20;99.90;;;;;;5020483;28;20193;-65
2022/03/19 01:35:52;;;;;;;65.20;29.03;;;4.10;99.90;;;;;;5032371;28;20512;-64
2022/03/19 01:38:17;;;;;;;62.90;28.10;;;4.10;99.90;;;;;;5037885;28;20198;-63
2022/03/19 01:40:43;;;;;;;70.07;30.87;;;4.10;99.90;;;;;;5013872;28;20233;-65
2022/03/19 01:43:09;;;;;;;71.17;27.10;;;4.10;99.90;;;;;;5044233;28;20182;-65
2022/03/19 01:45:34;;;;;;;66.97;26.40;;;4.00;99.90;;;;;;5046966;28;20248;-64
2022/03/19 01:48:00;;;;;;;69.83;28.43;;;4.10;99.90;;;;;;5036141;28;20190;-65
2022/03/19 01:50:26;;;;;;;67.30;28.00;;;4.00;99.90;;;;;;5040793;28;20213;-65
2022/03/19 01:52:53;;;;;;;65.40;28.87;;;4.00;99.90;;;;;;5044672;28;20210;-66
2022/03/19 01:55:21;;;;;;;61.63;27.73;;;4.00;99.90;;;;;;5040726;28;20484;-65
2022/03/19 01:57:48;;;;;;;54.97;27.80;;;4.00;99.90;;;;;;5043314;28;20428;-64
2022/03/19 02:00:17;;;;;;;63.97;26.83;;;4.00;99.90;;;;;;5038844;28;20464;-65
2022/03/19 02:02:44;;;;;;;56.73;27.87;;;4.00;99.90;;;;;;5044157;28;20919;-65
2022/03/19 02:05:12;;;;;;;62.10;26.60;;;3.90;99.90;;;;;;5041122;28;20465;-65
2022/03/19 02:07:38;;;;;;;59.00;26.13;;;3.90;99.90;;;;;;5040122;28;20536;-64
2022/03/19 02:10:04;;;;;;;58.23;27.93;;;3.90;99.90;;;;;;5034999;28;20449;-65
2022/03/19 02:12:30;;;;;;;62.93;28.10;;;3.90;99.90;;;;;;5043816;28;20182;-65
2022/03/19 02:14:57;;;;;;;59.90;27.00;;;3.90;99.90;;;;;;5020585;28;20479;-64
2022/03/19 02:17:24;;;;;;;67.70;27.53;;;3.80;99.90;;;;;;5041083;28;20312;-65
2022/03/19 02:19:53;;;;;;;63.93;26.90;;;3.80;99.90;;;;;;5033005;28;20514;-65
2022/03/19 02:22:24;;;;;;;63.40;26.67;;;3.80;99.90;;;;;;5042319;28;21030;-65
2022/03/19 02:27:35;;;;;;;63.87;28.50;;;3.80;99.90;;;;;;5038906;28;20463;-65
2022/03/19 02:30:01;;;;;;;65.63;27.50;;;3.80;99.90;;;;;;5031450;28;20529;-65
2022/03/19 02:32:27;;;;;;;66.63;29.20;;;3.80;99.90;;;;;;5034762;28;20488;-65
2022/03/19 02:34:54;;;;;;;71.13;28.60;;;3.70;99.90;;;;;;5035402;28;20436;-65
2022/03/19 02:37:20;;;;;;;69.43;26.20;;;3.70;99.90;;;;;;5046697;28;20193;-65
2022/03/19 02:39:45;;;;;;;47.80;24.50;;;3.60;99.90;;;;;;5044512;28;21182;-65
2022/03/19 02:42:14;;;;;;;63.50;27.17;;;3.60;99.90;;;;;;5040144;28;20190;-65
2022/03/19 02:44:40;;;;;;;61.13;25.50;;;3.60;99.90;;;;;;5043822;28;20240;-64
2022/03/19 02:47:07;;;;;;;68.30;27.40;;;3.50;99.90;;;;;;5035219;28;20924;-64
2022/03/19 02:49:33;;;;;;;63.70;27.00;;;3.60;99.90;;;;;;5043057;28;20208;-63
2022/03/19 02:51:59;;;;;;;51.40;25.40;;;3.50;99.90;;;;;;5041928;28;20454;-65
2022/03/19 02:54:27;;;;;;;66.10;26.30;;;3.60;99.90;;;;;;5041528;28;20915;-64
2022/03/19 02:56:54;;;;;;;59.37;25.40;;;3.60;99.90;;;;;;5041333;28;20279;-64
2022/03/19 02:59:24;;;;;;;54.67;24.33;;;3.50;99.90;;;;;;5041863;28;20448;-63
2022/03/19 03:01:52;;;;;;;59.33;26.07;;;3.50;99.90;;;;;;5040215;28;20421;-64
2022/03/19 03:04:19;;;;;;;55.77;26.17;;;3.50;99.90;;;;;;5024769;28;20468;-65
2022/03/19 03:06:47;;;;;;;61.63;25.07;;;3.40;99.90;;;;;;5032673;28;20768;-64
2022/03/19 03:09:14;;;;;;;54.00;24.17;;;3.40;99.90;;;;;;5032467;28;20607;-64
2022/03/19 03:11:40;;;;;;;58.50;24.77;;;3.40;99.90;;;;;;5037679;28;20440;-64
2022/03/19 03:14:10;;;;;;;62.33;28.20;;;3.40;99.90;;;;;;5040157;28;20502;-64
2022/03/19 03:16:37;;;;;;;60.67;25.00;;;3.40;99.90;;;;;;5035477;28;20959;-64
2022/03/19 03:19:05;;;;;;;51.80;24.93;;;3.40;99.90;;;;;;5039938;28;21023;-64
2022/03/19 03:21:35;;;;;;;62.43;25.60;;;3.30;99.90;;;;;;5034891;28;21076;-64
2022/03/19 03:24:02;;;;;;;54.60;24.93;;;3.30;99.90;;;;;;5035709;28;20471;-65
2022/03/19 03:26:29;;;;;;;51.63;25.73;;;3.30;99.90;;;;;;5033157;28;21283;-64
2022/03/19 03:28:55;;;;;;;44.80;23.93;;;3.30;99.90;;;;;;5031876;28;20445;-64
2022/03/19 03:31:20;;;;;;;63.40;26.23;;;3.20;99.90;;;;;;5038369;28;20797;-63
2022/03/19 03:33:46;;;;;;;54.63;24.50;;;3.20;99.90;;;;;;5039692;28;20507;-64
2022/03/19 03:36:12;;;;;;;50.60;24.37;;;3.20;99.90;;;;;;5036058;28;20282;-64
2022/03/19 03:38:39;;;;;;;69.90;29.07;;;3.20;99.90;;;;;;5031262;28;20872;-63
2022/03/19 03:41:05;;;;;;;52.33;23.20;;;3.20;99.90;;;;;;5041309;28;20248;-63
2022/03/19 03:43:31;;;;;;;51.47;24.50;;;3.20;99.90;;;;;;5043643;28;20508;-64
2022/03/19 03:45:57;;;;;;;63.23;25.57;;;3.10;99.90;;;;;;5041192;28;20464;-64
2022/03/19 03:48:22;;;;;;;58.03;24.37;;;3.10;99.90;;;;;;5037358;28;20280;-64
2022/03/19 03:50:53;;;;;;;55.93;25.47;;;3.10;99.90;;;;;;5039727;28;20853;-64
2022/03/19 03:53:19;;;;;;;50.10;24.20;;;3.10;99.90;;;;;;5039425;28;20178;-64
2022/03/19 03:55:45;;;;;;;63.83;24.20;;;3.10;99.90;;;;;;5037199;28;20440;-65
2022/03/19 03:58:11;;;;;;;58.87;25.70;;;3.10;99.90;;;;;;5042143;28;20284;-64
2022/03/19 04:00:38;;;;;;;63.67;26.20;;;3.20;99.90;;;;;;5034039;28;20504;-65
2022/03/19 04:03:04;;;;;;;56.27;23.17;;;3.10;99.90;;;;;;5041813;28;20625;-65
2022/03/19 04:05:30;;;;;;;52.80;23.10;;;3.10;99.90;;;;;;5018910;28;20594;-64
2022/03/19 04:07:56;;;;;;;53.07;21.83;;;3.10;99.90;;;;;;5032537;28;20429;-65
2022/03/19 04:10:22;;;;;;;54.57;23.47;;;3.10;99.90;;;;;;5031891;28;20519;-65
2022/03/19 04:12:48;;;;;;;51.90;24.80;;;3.10;99.90;;;;;;5046603;28;20416;-63
2022/03/19 04:15:14;;;;;;;57.57;22.73;;;3.10;99.90;;;;;;5041819;28;20951;-63
2022/03/19 04:17:40;;;;;;;56.57;24.53;;;3.10;99.90;;;;;;5045839;28;20189;-65
2022/03/19 04:20:07;;;;;;;49.03;21.67;;;3.00;99.90;;;;;;5040077;28;20919;-66
2022/03/19 04:22:37;;;;;;;53.10;24.20;;;3.00;99.90;;;;;;5047065;28;20492;-66
2022/03/19 04:25:08;;;;;;;53.27;21.43;;;3.00;99.90;;;;;;5040595;28;20611;-65
2022/03/19 04:27:34;;;;;;;52.63;23.27;;;3.00;99.90;;;;;;5039885;28;20421;-65
2022/03/19 04:29:59;;;;;;;54.90;22.70;;;3.00;99.90;;;;;;5039443;28;20631;-64
2022/03/19 04:32:25;;;;;;;42.93;21.97;;;3.00;99.90;;;;;;5039368;28;20285;-63
2022/03/19 04:34:51;;;;;;;46.57;22.00;;;3.00;99.90;;;;;;5043983;28;20186;-65
2022/03/19 04:37:16;;;;;;;49.57;23.20;;;3.00;99.90;;;;;;5050664;28;20200;-66
2022/03/19 04:39:42;;;;;;;41.83;21.50;;;3.00;99.90;;;;;;5049571;28;20711;-66
2022/03/19 04:42:07;;;;;;;55.27;24.50;;;3.00;99.90;;;;;;5049817;28;20201;-65
2022/03/19 04:44:33;;;;;;;55.57;21.80;;;2.90;99.90;;;;;;5049591;28;20243;-66
2022/03/19 04:46:59;;;;;;;56.80;22.57;;;2.90;99.90;;;;;;5046210;28;20217;-65
2022/03/19 04:49:25;;;;;;;51.63;21.63;;;2.80;99.90;;;;;;5047831;28;20776;-65
2022/03/19 04:51:51;;;;;;;51.93;21.63;;;2.80;99.90;;;;;;5048290;28;20444;-65
2022/03/19 04:54:17;;;;;;;52.67;23.13;;;2.80;99.90;;;;;;5043876;28;20193;-66
2022/03/19 04:56:42;;;;;;;53.50;22.53;;;2.80;99.90;;;;;;5047259;28;20200;-65
2022/03/19 04:59:11;;;;;;;46.07;22.27;;;2.80;99.90;;;;;;5045342;28;20228;-65
2022/03/19 05:01:37;;;;;;;48.27;21.53;;;2.80;99.90;;;;;;5046200;28;20212;-65
2022/03/19 05:04:03;;;;;;;57.03;22.97;;;2.80;99.90;;;;;;5045110;28;20550;-65
2022/03/19 05:06:29;;;;;;;44.00;21.60;;;2.80;99.90;;;;;;5047572;28;20185;-66
2022/03/19 05:11:39;;;;;;;57.23;22.50;;;2.70;99.90;;;;;;5046457;28;20264;-66
2022/03/19 05:14:06;;;;;;;52.47;22.37;;;2.70;99.90;;;;;;5046508;28;20924;-66
2022/03/19 05:16:32;;;;;;;45.53;20.93;;;2.70;99.90;;;;;;5042153;28;20483;-65
2022/03/19 05:18:57;;;;;;;55.00;23.37;;;2.70;99.90;;;;;;5046628;28;20443;-65
2022/03/19 05:21:23;;;;;;;54.80;23.50;;;2.70;99.90;;;;;;5044824;28;20429;-66
2022/03/19 05:23:49;;;;;;;49.00;23.80;;;2.80;99.90;;;;;;5041340;28;20201;-66
2022/03/19 05:26:15;;;;;;;50.33;21.40;;;2.80;99.90;;;;;;5048033;28;20277;-64
2022/03/19 05:28:40;;;;;;;52.53;22.90;;;2.80;99.90;;;;;;5042681;28;20236;-65
2022/03/19 05:31:09;;;;;;;46.93;20.70;;;2.90;99.90;;;;;;5044930;28;20181;-65
2022/03/19 05:36:20;;;;;;;58.50;22.60;;;2.90;99.90;;;;;;5043798;28;20998;-65
2022/03/19 05:38:46;;;;;;;43.07;21.07;;;2.80;99.90;;;;;;5028131;28;20467;-65
2022/03/19 05:41:11;;;;;;;48.43;22.37;;;2.80;99.90;;;;;;5043133;28;20974;-65
2022/03/19 05:43:37;;;;;;;52.07;22.60;;;2.80;99.90;;;;;;5046077;28;20502;-65
2022/03/19 05:46:03;;;;;;;48.53;21.50;;;2.80;99.90;;;;;;5042370;28;20312;-65
2022/03/19 05:48:29;;;;;;;41.73;22.07;;;2.90;99.90;;;;;;5042535;28;20185;-64
2022/03/19 05:50:54;;;;;;;65.70;22.10;;;2.70;99.90;;;;;;5042509;28;20431;-65
2022/03/19 05:53:20;;;;;;;42.20;19.73;;;2.80;99.90;;;;;;5041700;28;20273;-65
2022/03/19 05:55:47;;;;;;;53.33;21.37;;;2.80;99.90;;;;;;5041780;28;21115;-65
2022/03/19 05:58:12;;;;;;;48.77;20.67;;;2.80;99.90;;;;;;5043574;28;20272;-65
2022/03/19 06:00:38;;;;;;;44.33;22.37;;;2.80;99.90;;;;;;5037475;28;20559;-65
2022/03/19 06:03:04;;;;;;;53.50;23.97;;;2.80;99.90;;;;;;5043312;28;20562;-65
2022/03/19 06:05:30;;;;;;;58.70;21.57;;;2.80;99.90;;;;;;5033912;28;20456;-66
2022/03/19 06:07:55;;;;;;;44.77;21.03;;;2.80;99.90;;;;;;5036861;28;20182;-65
2022/03/19 06:10:21;;;;;;;44.30;19.00;;;2.80;99.90;;;;;;5028681;28;20666;-65
2022/03/19 06:12:47;;;;;;;51.30;19.60;;;2.80;99.90;;;;;;5038572;28;20634;-66
2022/03/19 06:15:13;;;;;;;47.30;20.93;;;2.90;99.90;;;;;;5036328;28;20246;-66
2022/03/19 06:17:38;;;;;;;51.20;22.80;;;2.90;99.90;;;;;;5023258;28;20459;-66
2022/03/19 06:20:04;;;;;;;54.73;24.57;;;2.90;99.90;;;;;;5037929;28;20233;-66
2022/03/19 06:22:30;;;;;;;48.90;20.07;;;3.00;99.90;;;;;;5040487;28;20274;-65
2022/03/19 06:24:56;;;;;;;43.97;20.27;;;3.00;99.90;;;;;;5016639;28;20488;-65
2022/03/19 06:27:22;;;;;;;40.47;20.10;;;3.10;99.90;;;;;;5043616;28;20571;-66
2022/03/19 06:29:48;;;;;;;48.30;19.63;;;3.10;99.90;;;;;;5019246;28;20229;-65
2022/03/19 06:32:20;;;;;;;51.50;19.53;;;3.20;99.90;;;;;;5038789;28;20476;-65
2022/03/19 06:34:49;;;;;;;47.97;19.93;;;3.30;99.90;;;;;;5022563;28;20922;-66
2022/03/19 06:37:21;;;;;;;45.67;20.50;;;3.30;99.90;;;;;;5042162;28;20433;-66
2022/03/19 06:39:54;;;;;;;47.33;20.73;;;3.40;99.90;;;;;;5041281;28;20447;-66
2022/03/19 06:42:21;;;;;;;44.13;19.77;;;3.50;99.90;;;;;;5037661;28;20417;-66
2022/03/19 06:44:47;;;;;;;44.33;19.57;;;3.50;99.90;;;;;;5043263;28;20944;-67
2022/03/19 06:47:12;;;;;;;47.03;20.13;;;3.60;99.90;;;;;;5035982;28;20503;-66
2022/03/19 06:49:38;;;;;;;44.20;18.70;;;3.60;99.90;;;;;;5034840;28;20543;-66
2022/03/19 06:52:04;;;;;;;46.67;20.27;;;3.70;99.90;;;;;;5039439;28;20178;-65
2022/03/19 06:54:30;;;;;;;48.00;19.40;;;3.80;99.90;;;;;;5035151;28;20186;-65
2022/03/19 06:56:55;;;;;;;49.60;21.80;;;3.80;99.90;;;;;;5033744;28;20425;-66
2022/03/19 06:59:21;;;;;;;40.43;17.03;;;3.90;99.90;;;;;;5036068;28;20201;-64
2022/03/19 07:01:47;;;;;;;41.83;19.47;;;4.00;99.90;;;;;;5043149;28;20285;-64
2022/03/19 07:04:13;;;;;;;33.47;17.27;;;4.10;99.90;;;;;;5038466;28;20311;-64
2022/03/19 07:06:39;;;;;;;41.80;19.80;;;4.20;99.90;;;;;;5038102;28;20424;-65
2022/03/19 07:09:05;;;;;;;37.20;17.97;;;4.30;99.90;;;;;;5035527;28;20285;-65
2022/03/19 07:11:31;;;;;;;39.57;16.17;;;4.50;99.90;;;;;;5017525;28;20182;-67
2022/03/19 07:13:58;;;;;;;44.97;19.40;;;4.60;99.90;;;;;;5029869;28;20443;-65
2022/03/19 07:16:24;;;;;;;42.10;17.47;;;4.80;99.90;;;;;;5037067;28;20429;-66
2022/03/19 07:18:50;;;;;;;45.47;19.80;;;5.00;99.40;;;;;;5015971;28;20987;-66
2022/03/19 07:21:16;;;;;;;38.73;17.20;;;5.20;99.30;;;;;;5020339;28;20744;-66
2022/03/19 07:23:42;;;;;;;33.90;16.13;;;5.30;98.50;;;;;;5045414;28;21064;-67
2022/03/19 07:26:08;;;;;;;39.90;17.03;;;5.40;98.20;;;;;;5044606;28;20498;-66
2022/03/19 07:28:34;;;;;;;35.73;16.80;;;5.60;98.10;;;;;;5039849;28;20428;-66
2022/03/19 07:31:00;;;;;;;41.87;15.93;;;5.80;97.00;;;;;;5036786;28;20440;-67
2022/03/19 07:33:27;;;;;;;34.37;15.30;;;6.20;96.40;;;;;;5042081;28;20193;-66
2022/03/19 07:35:53;;;;;;;53.93;17.97;;;6.60;95.80;;;;;;5028132;28;20421;-67
2022/03/19 07:38:18;;;;;;;33.83;15.03;;;7.10;95.00;;;;;;5040907;28;20486;-66
2022/03/19 07:43:31;;;;;;;39.63;18.70;;;7.90;92.60;;;;;;5039679;28;20714;-67
2022/03/19 07:45:56;;;;;;;38.50;16.30;;;8.20;93.00;;;;;;5031553;28;20552;-67
2022/03/19 07:48:22;;;;;;;30.73;16.07;;;8.60;91.80;;;;;;5028293;28;20516;-66
2022/03/19 07:50:48;;;;;;;39.40;15.67;;;9.00;91.30;;;;;;5033036;28;20206;-65
2022/03/19 07:53:14;;;;;;;36.33;17.47;;;9.30;90.50;;;;;;5033324;28;20719;-67
2022/03/19 07:55:39;;;;;;;33.17;17.50;;;9.70;89.40;;;;;;5033963;28;20709;-67
2022/03/19 07:58:05;;;;;;;32.13;16.10;;;9.90;87.30;;;;;;5039687;28;20276;-66
2022/03/19 08:00:31;;;;;;;29.17;15.67;;;9.70;87.30;;;;;;5032657;28;20697;-67
2022/03/19 08:02:57;;;;;;;29.93;14.40;;;9.90;87.20;;;;;;5038416;28;20428;-67
2022/03/19 08:05:23;;;;;;;38.70;14.93;;;10.10;85.30;;;;;;5033005;28;20206;-66
2022/03/19 08:07:48;;;;;;;30.30;14.93;;;10.40;84.00;;;;;;5037796;28;20252;-67
2022/03/19 08:10:15;;;;;;;29.17;14.87;;;10.40;83.10;;;;;;5028004;28;20815;-66
2022/03/19 08:12:43;;;;;;;28.67;14.07;;;10.10;82.60;;;;;;5038469;28;20629;-66
2022/03/19 08:15:10;;;;;;;32.07;14.47;;;9.90;84.10;;;;;;5041242;28;20475;-68
2022/03/19 08:17:37;;;;;;;33.80;14.63;;;10.00;82.10;;;;;;5042756;28;20428;-67
2022/03/19 08:20:06;;;;;;;32.33;16.03;;;10.20;82.40;;;;;;5040829;28;20444;-67
2022/03/19 08:22:31;;;;;;;33.07;14.20;;;10.50;81.40;;;;;;5043055;28;21187;-68
2022/03/19 08:24:58;;;;;;;33.90;13.93;;;10.50;81.10;;;;;;5040434;28;20471;-67
2022/03/19 08:27:24;;;;;;;30.07;13.43;;;10.60;80.00;;;;;;5040453;28;20273;-68
2022/03/19 08:29:51;;;;;;;36.97;14.47;;;10.40;79.60;;;;;;5036213;28;20543;-68
2022/03/19 08:32:16;;;;;;;31.33;13.17;;;10.40;78.80;;;;;;5034112;28;20185;-67
2022/03/19 08:34:44;;;;;;;38.43;15.87;;;10.40;79.10;;;;;;5026965;28;20491;-67
2022/03/19 08:37:11;;;;;;;29.50;14.40;;;10.40;79.00;;;;;;5031987;28;20174;-67
2022/03/19 08:42:22;;;;;;;23.37;11.53;;;10.80;78.50;;;;;;5033316;28;20446;-68
2022/03/19 08:44:48;;;;;;;45.07;15.10;;;10.90;76.50;;;;;;5037468;28;20472;-67
2022/03/19 08:47:14;;;;;;;29.37;13.53;;;11.10;76.40;;;;;;5029253;28;20425;-68
2022/03/19 08:49:40;;;;;;;29.77;14.40;;;11.50;75.40;;;;;;5035572;28;20451;-68
2022/03/19 08:52:06;;;;;;;20.83;12.10;;;11.30;75.80;;;;;;5034705;28;20198;-67
2022/03/19 08:54:32;;;;;;;30.27;11.80;;;11.30;75.80;;;;;;5035781;28;20299;-67
2022/03/19 08:56:57;;;;;;;28.30;12.60;;;11.10;74.30;;;;;;5027311;28;20436;-68
2022/03/19 08:59:23;;;;;;;30.23;13.50;;;11.20;73.70;;;;;;5047496;28;20214;-67
2022/03/19 09:01:50;;;;;;;30.77;13.37;;;11.30;73.20;;;;;;5046845;28;20193;-67
2022/03/19 09:04:17;;;;;;;27.90;11.60;;;11.30;73.30;;;;;;5047566;28;20197;-67
2022/03/19 09:06:43;;;;;;;19.63;10.27;;;11.30;72.80;;;;;;5045775;28;20504;-67
2022/03/19 09:09:11;;;;;;;26.03;13.60;;;11.20;71.00;;;;;;5042888;28;20471;-67
2022/03/19 09:11:37;;;;;;;21.33;11.30;;;10.80;70.60;;;;;;5044983;28;20448;-67
2022/03/19 09:14:05;;;;;;;24.57;12.60;;;10.90;73.00;;;;;;5045562;28;20946;-68
2022/03/19 09:16:32;;;;;;;32.33;13.03;;;11.20;72.20;;;;;;5042936;28;20428;-68
2022/03/19 09:18:58;;;;;;;26.97;12.00;;;11.30;72.20;;;;;;5046011;28;20534;-69
2022/03/19 09:21:24;;;;;;;28.77;12.77;;;11.40;71.50;;;;;;5043207;28;20432;-67
2022/03/19 09:23:50;;;;;;;30.00;12.73;;;11.40;69.30;;;;;;5045620;28;20420;-66
2022/03/19 09:26:17;;;;;;;25.47;11.60;;;11.40;69.40;;;;;;5036171;28;20421;-67
2022/03/19 09:28:42;;;;;;;26.03;12.60;;;11.40;69.00;;;;;;5037266;28;20240;-67
2022/03/19 09:31:08;;;;;;;31.13;11.53;;;11.30;69.80;;;;;;5034679;28;20453;-66
2022/03/19 09:33:34;;;;;;;25.37;10.50;;;11.30;69.20;;;;;;5041812;28;20181;-67
2022/03/19 09:36:01;;;;;;;43.17;11.30;;;11.20;67.90;;;;;;5032504;28;20186;-66
2022/03/19 09:38:29;;;;;;;26.53;12.50;;;11.10;69.40;;;;;;5041427;28;20181;-66
2022/03/19 09:40:56;;;;;;;28.20;10.40;;;11.00;68.70;;;;;;5032195;28;20430;-65
2022/03/19 09:43:23;;;;;;;31.20;10.53;;;10.90;68.90;;;;;;5041141;28;20887;-63
2022/03/19 09:45:48;;;;;;;26.93;12.17;;;10.70;68.80;;;;;;5037199;28;20835;-63
2022/03/19 09:48:14;;;;;;;26.27;11.17;;;10.60;69.20;;;;;;5040318;28;20433;-65
2022/03/19 09:50:41;;;;;;;26.87;11.80;;;10.40;69.40;;;;;;5036456;28;20205;-65
2022/03/19 09:53:09;;;;;;;25.97;11.13;;;10.10;71.40;;;;;;5045979;28;20251;-65
2022/03/19 09:55:41;;;;;;;28.60;11.70;;;10.00;71.00;;;;;;5047065;28;20527;-64
2022/03/19 09:58:06;;;;;;;25.80;10.50;;;9.60;72.00;;;;;;5047608;28;20515;-65
2022/03/19 10:00:32;;;;;;;27.10;11.57;;;9.40;72.90;;;;;;5044665;28;20558;-66
2022/03/19 10:03:00;;;;;;;18.47;10.30;;;9.40;72.90;;;;;;5047900;28;20212;-65
2022/03/19 10:11:00;;;;;;;24.87;11.43;;;9.00;73.60;;;;;;5044433;28;20518;-63
2022/03/19 10:13:26;;;;;;;26.43;12.53;;;9.10;74.40;;;;;;5043730;28;20523;-65
2022/03/19 10:15:52;;;;;;;29.83;12.70;;;9.30;75.00;;;;;;5042975;28;20626;-64
2022/03/19 10:18:18;;;;;;;24.27;11.97;;;9.40;74.30;;;;;;5040530;28;20504;-65
2022/03/19 10:20:44;;;;;;;28.17;13.00;;;9.50;73.60;;;;;;5045110;28;20544;-65
2022/03/19 10:23:10;;;;;;;31.20;11.73;;;9.70;74.50;;;;;;5041881;28;20194;-65
2022/03/19 10:25:36;;;;;;;28.70;12.40;;;9.60;73.70;;;;;;5044749;28;20463;-65
2022/03/19 10:28:09;;;;;;;27.50;12.73;;;9.60;73.70;;;;;;5038697;28;20673;-66
2022/03/19 10:30:39;;;;;;;26.33;11.47;;;9.70;75.50;;;;;;5031965;28;20879;-65
2022/03/19 10:33:07;;;;;;;25.93;12.53;;;9.90;75.30;;;;;;5033802;28;20413;-65
2022/03/19 10:35:35;;;;;;;28.80;13.67;;;9.80;74.40;;;;;;5033075;28;20440;-65
2022/03/19 10:38:22;;;;;;;24.87;12.27;;;9.80;74.00;;;;;;5035671;28;20421;-65
2022/03/19 10:40:51;;;;;;;25.67;12.50;;;9.70;73.80;;;;;;5031388;28;20990;-65
2022/03/19 10:43:19;;;;;;;26.80;11.30;;;9.80;74.50;;;;;;5038083;28;20953;-65
2022/03/19 10:45:48;;;;;;;31.20;12.33;;;9.70;72.70;;;;;;5036687;28;20564;-65
2022/03/19 10:48:24;;;;;;;28.37;13.50;;;9.70;74.40;;;;;;5037403;28;20446;-65
2022/03/19 10:50:51;;;;;;;26.03;13.27;;;9.70;75.20;;;;;;5038939;28;20471;-65
2022/03/19 10:53:18;;;;;;;27.47;11.80;;;9.80;74.20;;;;;;5044426;28;20417;-65
2022/03/19 10:55:44;;;;;;;22.13;10.47;;;9.80;73.30;;;;;;5044794;28;20433;-65
2022/03/19 10:58:10;;;;;;;24.57;11.00;;;9.90;72.70;;;;;;5045325;28;20546;-65
2022/03/19 11:00:36;;;;;;;21.23;11.07;;;10.10;70.10;;;;;;5043055;28;20503;-65
2022/03/19 11:03:34;;;;;;;35.43;11.10;;;10.00;71.10;;;;;;5019551;28;20535;-65
2022/03/19 11:06:07;;;;;;;30.57;11.93;;;10.10;72.40;;;;;;5020521;28;20223;-65
2022/03/19 11:08:47;;;;;;;29.60;11.93;;;10.10;72.00;;;;;;5021535;28;21103;-65
2022/03/19 11:11:55;;;;;;;28.30;12.10;;;10.20;71.50;;;;;;5038079;28;20425;-66
2022/03/19 11:14:23;;;;;;;27.83;12.50;;;10.30;72.90;;;;;;5033612;28;20428;-65
2022/03/19 11:19:45;;;;;;;28.93;12.33;;;10.40;71.50;;;;;;5038431;28;20536;-65
2022/03/19 11:22:12;;;;;;;28.20;12.77;;;10.40;74.40;;;;;;5023452;28;20520;-65
2022/03/19 11:24:51;;;;;;;34.80;13.63;;;10.40;73.10;;;;;;5037747;28;20465;-65
2022/03/19 11:27:18;;;;;;;30.00;13.30;;;10.40;73.50;;;;;;5040077;28;20415;-65
2022/03/19 11:29:44;;;;;;;24.67;11.87;;;10.60;73.80;;;;;;5029371;28;20441;-65
2022/03/19 11:32:22;;;;;;;29.13;13.60;;;10.70;74.20;;;;;;5031500;28;20440;-68
2022/03/19 11:34:49;;;;;;;40.97;13.93;;;10.70;75.40;;;;;;5028853;28;20213;-65
2022/03/19 11:37:14;;;;;;;31.60;14.80;;;10.90;74.90;;;;;;5039463;28;20896;-66
2022/03/19 11:40:28;;;;;;;37.47;14.90;;;10.90;74.20;;;;;;5032339;28;20460;-66
2022/03/19 11:43:07;;;;;;;33.13;14.00;;;10.80;75.20;;;;;;5012364;28;20226;-65
2022/03/19 11:45:38;;;;;;;31.10;14.80;;;10.80;75.10;;;;;;5044847;28;20650;-66
2022/03/19 11:48:04;;;;;;;29.63;14.30;;;10.90;75.00;;;;;;5045033;28;20482;-65
2022/03/19 11:50:31;;;;;;;28.43;14.00;;;11.20;73.90;;;;;;5042520;28;20451;-65
2022/03/19 11:52:56;;;;;;;35.10;12.73;;;11.40;72.40;;;;;;5035703;28;20440;-65
2022/03/19 11:55:29;;;;;;;29.53;13.60;;;11.20;72.40;;;;;;5015553;28;20421;-65
2022/03/19 11:58:02;;;;;;;25.77;11.53;;;11.20;72.60;;;;;;5043311;28;20292;-65
2022/03/19 12:00:31;;;;;;;30.80;12.60;;;11.10;71.80;;;;;;5039309;28;20480;-65
2022/03/19 12:03:11;;;;;;;22.53;10.47;;;11.00;72.10;;;;;;5041779;28;20448;-65
2022/03/19 12:05:44;;;;;;;28.63;11.40;;;11.00;71.00;;;;;;5039329;28;20478;-65
2022/03/19 12:08:23;;;;;;;29.10;13.60;;;11.10;72.50;;;;;;5038523;28;20417;-65
2022/03/19 12:10:55;;;;;;;19.87;9.07;;;11.10;71.60;;;;;;5036123;28;20475;-65
2022/03/19 12:13:27;;;;;;;17.13;9.30;;;11.10;68.80;;;;;;5018062;28;20429;-65
2022/03/19 12:15:59;;;;;;;17.80;7.77;;;11.20;68.40;;;;;;5041208;28;20447;-66
2022/03/19 12:18:27;;;;;;;19.93;7.50;;;11.40;67.00;;;;;;5035634;28;20832;-65
2022/03/19 12:20:54;;;;;;;17.20;7.33;;;11.30;65.40;;;;;;5040044;28;20798;-65
2022/03/19 12:23:20;;;;;;;17.20;8.17;;;11.10;65.10;;;;;;5032001;28;21050;-65
2022/03/19 12:25:58;;;;;;;16.33;6.70;;;10.90;64.60;;;;;;5039538;28;20464;-66
2022/03/19 12:28:24;;;;;;;11.93;6.13;;;10.70;64.30;;;;;;5026269;28;20246;-65
2022/03/19 12:30:50;;;;;;;19.63;7.13;;;10.60;65.70;;;;;;5033327;28;20448;-66
2022/03/19 12:33:16;;;;;;;24.60;7.93;;;10.50;65.80;;;;;;5038442;28;20284;-66
2022/03/19 12:35:43;;;;;;;13.80;6.40;;;10.40;67.90;;;;;;5045976;28;20424;-66
2022/03/19 12:38:10;;;;;;;23.70;8.90;;;10.60;68.30;;;;;;5048046;28;20213;-66
2022/03/19 12:43:22;;;;;;;17.20;7.47;;;11.20;68.10;;;;;;5039984;28;20451;-66
2022/03/19 12:45:50;;;;;;;19.07;7.30;;;11.30;68.90;;;;;;5040815;28;21418;-66
2022/03/19 12:48:21;;;;;;;15.23;6.60;;;11.20;67.30;;;;;;5046506;28;20416;-65
2022/03/19 12:50:52;;;;;;;16.93;6.63;;;11.40;66.80;;;;;;5043577;28;20443;-66
2022/03/19 12:53:29;;;;;;;14.37;6.30;;;11.50;66.30;;;;;;5046181;28;20412;-66
2022/03/19 12:56:17;;;;;;;14.70;6.33;;;11.60;66.90;;;;;;5026246;28;20423;-66
2022/03/19 12:58:45;;;;;;;18.10;7.43;;;11.50;64.80;;;;;;5037605;28;20421;-66
2022/03/19 13:01:17;;;;;;;14.97;5.17;;;11.20;64.50;;;;;;5038492;28;20948;-66